Time;durP1;ratioP1;P1;durP2;ratioP2;P2;SDS_P1;SDS_P2;PMS_P1;PMS_P2;Temp;Humidity;BMP_temperature;BMP_pressure;BME280_temperature;BME280_humidity;BME280_pressure;Samples;Min_cycle;Max_cycle;Signal;HPM_P1;HPM_P2
2023/05/09 00:09:23;;;;;;;1.10;1.00;;;;;;;24.27;46.31;100829.22;20924000;28;20044;-74
2023/05/09 00:19:25;;;;;;;1.13;1.00;;;;;;;24.31;46.39;100854.63;20923953;28;20621;-75
2023/05/09 00:29:26;;;;;;;0.90;0.85;;;;;;;24.29;46.39;100860.53;20922866;28;20029;-74
2023/05/09 00:39:30;;;;;;;1.30;1.20;;;;;;;24.30;46.25;100875.34;20922199;28;20041;-74
2023/05/09 00:49:32;;;;;;;1.05;0.93;;;;;;;24.32;46.27;100890.66;20944450;28;20063;-74
2023/05/09 00:59:33;;;;;;;1.25;1.15;;;;;;;24.28;46.38;100894.38;21009276;28;20032;-74
2023/05/09 01:10:01;;;;;;;1.05;0.93;;;;;;;24.28;46.64;100900.81;21030764;28;20469;-75
2023/05/09 01:20:12;;;;;;;4.38;1.30;;;;;;;24.34;46.52;100916.38;20968859;28;20045;-73
2023/05/09 01:30:15;;;;;;;1.25;1.10;;;;;;;24.43;46.21;100929.69;20983468;28;20052;-73
2023/05/09 01:40:20;;;;;;;1.35;1.10;;;;;;;24.41;46.18;100941.16;21003190;28;20483;-73
2023/05/09 01:50:23;;;;;;;1.52;1.10;;;;;;;24.34;46.11;100944.34;21046267;28;20049;-73
2023/05/09 02:00:28;;;;;;;1.50;1.17;;;;;;;24.15;46.24;100929.53;20914856;28;20041;-73
2023/05/09 02:10:32;;;;;;;1.20;1.10;;;;;;;24.50;46.08;100972.06;20915874;28;20044;-73
2023/05/09 02:20:36;;;;;;;1.80;1.23;;;;;;;24.50;46.08;100972.06;21007962;28;20093;-76
2023/05/09 02:30:42;;;;;;;3.60;2.67;;;;;;;24.50;46.26;100986.06;21025260;28;20437;-74
2023/05/09 02:40:45;;;;;;;43.15;34.83;;;;;;;24.41;45.39;100996.28;21040416;28;20049;-76
2023/05/09 02:50:46;;;;;;;73.72;54.05;;;;;;;24.38;43.19;100999.69;21058998;28;20048;-76
2023/05/09 03:00:48;;;;;;;67.63;46.40;;;;;;;24.32;43.23;100991.34;20985648;28;20098;-76
2023/05/09 03:10:52;;;;;;;53.53;37.97;;;;;;;24.18;42.07;100984.84;20959561;28;20048;-76
2023/05/09 03:20:56;;;;;;;37.25;26.90;;;;;;;24.23;41.83;100998.75;20995410;28;20039;-75
2023/05/09 03:31:00;;;;;;;26.55;17.20;;;;;;;24.26;39.74;101020.50;21011443;28;20095;-77
2023/05/09 03:41:04;;;;;;;17.25;12.55;;;;;;;23.99;39.69;101007.19;21053470;28;20061;-75
2023/05/09 03:51:06;;;;;;;22.73;15.00;;;;;;;24.15;41.53;101044.19;21044402;28;20045;-75
2023/05/09 04:01:07;;;;;;;27.27;19.20;;;;;;;24.07;42.54;101044.84;20979881;28;20109;-75
2023/05/09 04:11:08;;;;;;;25.27;18.98;;;;;;;24.14;43.03;101059.25;21015845;28;20052;-76
2023/05/09 04:21:10;;;;;;;23.90;17.13;;;;;;;24.20;42.55;101052.50;21032003;28;20044;-75
2023/05/09 04:31:13;;;;;;;19.90;15.13;;;;;;;24.21;42.53;101048.56;20997211;28;20028;-75
2023/05/09 04:41:15;;;;;;;16.65;13.73;;;;;;;24.14;42.69;101044.44;20981757;28;20423;-76
2023/05/09 04:51:16;;;;;;;16.90;12.95;;;;;;;24.21;42.29;101065.34;21053291;28;20039;-77
2023/05/09 05:01:18;;;;;;;16.08;12.43;;;;;;;24.22;41.97;101057.78;21059559;28;20481;-76
2023/05/09 05:11:20;;;;;;;14.07;11.32;;;;;;;24.14;42.24;101041.66;21070085;28;20048;-75
2023/05/09 05:21:27;;;;;;;15.52;11.70;;;;;;;24.21;41.96;101042.97;21001608;28;20470;-76
2023/05/09 05:31:29;;;;;;;14.00;11.57;;;;;;;24.23;42.17;101049.06;20997292;28;20048;-76
2023/05/09 05:41:30;;;;;;;12.25;9.38;;;;;;;24.21;41.45;101068.13;20962557;28;20032;-76
2023/05/09 05:51:31;;;;;;;13.32;8.88;;;;;;;23.97;41.40;101026.25;20998315;28;20545;-76
2023/05/09 06:01:33;;;;;;;11.82;8.90;;;;;;;24.07;41.26;101036.44;20992152;28;20041;-75
2023/05/09 06:11:34;;;;;;;9.60;7.68;;;;;;;24.16;41.12;101082.19;20997315;28;20426;-75
2023/05/09 06:21:35;;;;;;;9.35;6.85;;;;;;;24.15;40.55;101074.09;21079030;28;20487;-75
2023/05/09 06:31:37;;;;;;;9.68;7.45;;;;;;;24.16;40.74;101065.41;20920231;28;20049;-76
2023/05/09 06:41:41;;;;;;;8.13;6.72;;;;;;;24.17;40.73;101058.66;20913902;28;20388;-76
2023/05/09 06:51:42;;;;;;;8.27;6.32;;;;;;;24.02;40.73;101026.16;20924753;28;20114;-76
2023/05/09 07:01:44;;;;;;;7.57;6.05;;;;;;;24.16;40.29;101058.97;20983440;28;20044;-76
2023/05/09 07:11:45;;;;;;;7.05;5.20;;;;;;;24.14;40.53;101070.44;20993657;28;20449;-76
2023/05/09 07:21:51;;;;;;;6.55;5.80;;;;;;;24.14;40.71;101067.66;20921008;28;20045;-77
2023/05/09 07:31:53;;;;;;;6.90;5.40;;;;;;;24.16;40.65;101059.81;20910537;28;20041;-76
2023/05/09 07:41:54;;;;;;;5.82;5.05;;;;;;;24.17;40.77;101078.25;20909749;28;20037;-75
2023/05/09 07:51:56;;;;;;;6.80;5.18;;;;;;;23.84;40.16;101030.59;20945689;28;20103;-76
2023/05/09 08:01:58;;;;;;;6.13;4.70;;;;;;;24.13;40.43;101074.38;20909157;28;20052;-76
2023/05/09 08:12:02;;;;;;;5.57;4.78;;;;;;;23.84;39.93;101018.59;20976670;28;20074;-76
2023/05/09 08:22:06;;;;;;;6.32;5.13;;;;;;;24.15;40.22;101062.91;20950155;28;20052;-75
2023/05/09 08:32:10;;;;;;;5.32;4.50;;;;;;;23.96;40.49;101068.44;21003350;28;20040;-75
2023/05/09 08:42:14;;;;;;;5.63;4.88;;;;;;;24.13;40.35;101085.56;21002280;28;20434;-76
2023/05/09 08:52:16;;;;;;;4.90;4.35;;;;;;;23.94;39.98;101048.34;20984883;28;20558;-75
2023/05/09 09:02:18;;;;;;;6.05;4.15;;;;;;;24.12;39.82;101058.75;20975173;28;20041;-76
2023/05/09 09:12:24;;;;;;;4.97;3.83;;;;;;;24.11;39.62;101076.66;20985424;28;20048;-76
2023/05/09 09:22:32;;;;;;;4.70;4.10;;;;;;;24.12;40.11;101063.50;20964615;28;20094;-76
2023/05/09 09:32:34;;;;;;;4.60;3.65;;;;;;;24.02;39.63;101054.13;20949182;28;20037;-76
2023/05/09 09:42:47;;;;;;;3.92;3.53;;;;;;;24.03;39.67;101074.53;20999840;28;20348;-76
2023/05/09 09:52:53;;;;;;;3.90;3.30;;;;;;;24.10;39.53;101088.97;20943436;28;20041;-75
2023/05/09 10:02:56;;;;;;;4.40;3.35;;;;;;;23.72;39.18;101027.38;20915486;28;20044;-76
2023/05/09 10:13:01;;;;;;;3.20;2.90;;;;;;;23.91;38.92;101096.47;20916532;28;20029;-75
2023/05/09 10:23:05;;;;;;;3.40;2.42;;;;;;;24.00;39.17;101145.00;20956230;28;20036;-75
2023/05/09 10:33:12;;;;;;;3.38;2.70;;;;;;;23.99;39.75;101146.94;20987589;28;20102;-75
2023/05/09 10:43:13;;;;;;;3.70;2.80;;;;;;;23.77;38.76;101118.69;20972077;28;20037;-76
2023/05/09 10:53:17;;;;;;;2.97;2.60;;;;;;;23.97;39.10;101166.00;20957633;28;20102;-76
2023/05/09 11:03:19;;;;;;;2.90;2.63;;;;;;;23.94;38.71;101174.97;20987818;28;20047;-76
2023/05/09 11:13:22;;;;;;;3.13;2.67;;;;;;;23.98;38.79;101176.03;20980414;28;20033;-77
2023/05/09 11:23:30;;;;;;;3.55;2.40;;;;;;;23.95;38.64;101198.97;20975134;28;20471;-76
2023/05/09 11:33:35;;;;;;;3.60;2.70;;;;;;;23.87;38.69;101202.44;20986749;28;20498;-76
2023/05/09 11:43:43;;;;;;;2.75;2.53;;;;;;;23.98;38.26;101231.94;21042605;28;20082;-75
2023/05/09 11:53:49;;;;;;;2.08;1.88;;;;;;;23.72;35.43;101199.78;20969526;28;20099;-75
2023/05/09 12:03:53;;;;;;;9.05;2.28;;;;;;;23.63;36.39;101196.75;21053948;28;20052;-75
2023/05/09 12:13:54;;;;;;;4.72;2.20;;;;;;;23.56;36.04;101202.69;21007295;28;20508;-75
2023/05/09 12:23:56;;;;;;;8.07;2.60;;;;;;;23.53;37.03;101231.19;21003484;28;20055;-77
2023/05/09 12:33:57;;;;;;;3.55;2.45;;;;;;;23.53;36.70;101252.72;20997886;28;20371;-77
2023/05/09 12:44:18;;;;;;;4.68;2.00;;;;;;;23.47;36.36;101251.09;21039772;28;20483;-76
2023/05/09 12:54:24;;;;;;;6.18;2.30;;;;;;;23.26;36.69;101228.88;21046725;28;20036;-76
2023/05/09 13:04:27;;;;;;;2.90;2.20;;;;;;;23.23;36.50;101259.34;20973613;28;20048;-77
2023/05/09 13:14:29;;;;;;;3.63;1.90;;;;;;;23.43;36.00;101308.66;21043062;28;20101;-78
2023/05/09 13:24:30;;;;;;;2.95;1.77;;;;;;;23.24;35.95;101286.16;21033178;28;20475;-76
2023/05/09 13:34:32;;;;;;;6.10;2.00;;;;;;;23.40;35.83;101310.06;20990798;28;20048;-83
2023/05/09 13:44:33;;;;;;;5.15;1.75;;;;;;;23.37;35.98;101298.63;21000717;28;20044;-83
2023/05/09 13:54:38;;;;;;;5.25;2.10;;;;;;;23.32;35.90;101303.16;20999940;28;20048;-81
2023/05/09 14:04:40;;;;;;;4.70;1.80;;;;;;;23.30;35.54;101338.03;20998810;28;20074;-81
2023/05/09 14:14:41;;;;;;;2.33;1.52;;;;;;;23.34;35.74;101344.72;20992630;28;20052;-80
2023/05/09 14:24:43;;;;;;;3.67;1.98;;;;;;;23.13;35.94;101332.81;20991327;28;20544;-81
2023/05/09 14:34:50;;;;;;;4.50;1.45;;;;;;;23.37;35.45;101371.22;21010443;28;20098;-82
2023/05/09 14:44:52;;;;;;;2.28;1.52;;;;;;;23.40;35.79;101348.31;21002261;28;20040;-81
2023/05/09 14:54:53;;;;;;;4.22;1.73;;;;;;;23.36;35.36;101344.44;20998892;28;20033;-82
2023/05/09 15:04:54;;;;;;;5.15;1.95;;;;;;;23.34;35.55;101327.97;20998628;28;20400;-82
2023/05/09 15:15:17;;;;;;;2.92;1.83;;;;;;;23.38;35.60;101362.59;20999953;28;20032;-82
2023/05/09 15:25:19;;;;;;;3.47;1.85;;;;;;;23.28;36.29;101317.97;20994232;28;20391;-81
2023/05/09 15:35:20;;;;;;;8.30;1.95;;;;;;;23.39;34.69;101363.41;20936892;28;20127;-80
2023/05/09 15:45:21;;;;;;;6.15;1.60;;;;;;;23.28;33.22;101373.81;20976827;28;20049;-77
2023/05/09 15:55:26;;;;;;;5.53;2.15;;;;;;;23.25;33.37;101386.38;20949662;28;20037;-79
2023/05/09 16:05:27;;;;;;;5.20;1.77;;;;;;;22.90;33.23;101364.19;20908038;28;20049;-79
2023/05/09 16:15:28;;;;;;;3.13;1.30;;;;;;;23.16;33.37;101401.22;20908704;28;20052;-79
2023/05/09 16:25:30;;;;;;;2.78;1.35;;;;;;;22.78;32.62;101368.09;20916349;28;20041;-80
2023/05/09 16:35:31;;;;;;;7.13;1.90;;;;;;;23.10;33.33;101399.56;20989690;28;20102;-79
2023/05/09 16:45:33;;;;;;;5.07;1.63;;;;;;;23.12;34.13;101406.53;20995367;28;20086;-81
2023/05/09 16:55:34;;;;;;;1.67;1.20;;;;;;;23.11;34.02;101390.91;21004419;28;20044;-80
2023/05/09 17:05:35;;;;;;;3.47;1.30;;;;;;;23.16;34.84;101376.09;21000872;28;20045;-79
2023/05/09 17:15:37;;;;;;;4.80;1.42;;;;;;;23.20;34.94;101389.19;21001098;28;20044;-79
2023/05/09 17:25:41;;;;;;;3.60;1.23;;;;;;;23.23;34.50;101416.56;21056377;28;20064;-78
2023/05/09 17:35:43;;;;;;;4.57;1.42;;;;;;;23.38;34.49;101406.44;20940949;28;20052;-80
2023/05/09 17:45:45;;;;;;;3.47;1.50;;;;;;;23.34;34.16;101389.41;20919121;28;20076;-79
2023/05/09 17:55:46;;;;;;;5.18;1.30;;;;;;;23.26;33.07;101378.84;20949455;28;20048;-83
2023/05/09 18:05:48;;;;;;;4.70;1.05;;;;;;;23.29;32.69;101376.31;20989924;28;20037;-80
2023/05/09 18:15:53;;;;;;;16.52;2.10;;;;;;;23.37;32.92;101366.50;20983214;28;20056;-82
2023/05/09 18:25:55;;;;;;;11.10;1.55;;;;;;;23.30;31.80;101374.34;20994654;28;20037;-79
2023/05/09 18:35:56;;;;;;;6.95;1.45;;;;;;;23.19;31.25;101379.16;20992628;28;20044;-78
2023/05/09 18:46:04;;;;;;;5.70;1.40;;;;;;;23.34;31.86;101379.06;20977642;28;20411;-79
2023/05/09 18:56:05;;;;;;;4.00;1.13;;;;;;;23.09;31.09;101348.47;20911705;28;20037;-79
2023/05/09 19:06:08;;;;;;;2.50;1.23;;;;;;;23.15;30.62;101347.34;20917427;28;20110;-79
2023/05/09 19:16:21;;;;;;;1.80;1.20;;;;;;;22.95;29.85;101313.94;20911781;28;20510;-79
2023/05/09 19:26:23;;;;;;;6.07;1.30;;;;;;;23.42;31.90;101341.34;20959393;28;20045;-79
2023/05/09 19:36:24;;;;;;;4.13;1.25;;;;;;;23.42;30.72;101334.94;20993103;28;20051;-80
2023/05/09 19:46:26;;;;;;;4.65;1.30;;;;;;;23.49;31.68;101321.44;20944496;28;20045;-80
2023/05/09 19:56:27;;;;;;;2.42;1.33;;;;;;;23.57;31.94;101309.69;20937812;28;20509;-83
2023/05/09 20:06:28;;;;;;;6.07;1.60;;;;;;;23.55;30.79;101300.75;20990399;28;20532;-80
2023/05/09 20:16:30;;;;;;;4.18;1.42;;;;;;;23.29;30.02;101263.78;20994027;28;20093;-81
2023/05/09 20:26:34;;;;;;;3.13;1.60;;;;;;;23.40;30.66;101258.94;21007255;28;20480;-80
2023/05/09 20:36:38;;;;;;;4.68;1.75;;;;;;;23.59;30.04;101299.03;21006118;28;20021;-80
2023/05/09 20:46:43;;;;;;;6.22;1.98;;;;;;;23.55;28.60;101306.34;21004693;28;20483;-80
2023/05/09 20:56:45;;;;;;;6.10;1.70;;;;;;;23.54;28.59;101293.47;21004866;28;20040;-80
2023/05/09 21:06:46;;;;;;;1.90;1.50;;;;;;;23.15;28.77;101235.69;21004890;28;20041;-80
2023/05/09 21:16:48;;;;;;;2.38;1.42;;;;;;;23.54;29.51;101282.31;21004425;28;20105;-80
2023/05/09 21:26:50;;;;;;;4.47;1.33;;;;;;;23.46;28.52;101294.09;21002839;28;20494;-81
2023/05/09 21:36:51;;;;;;;2.83;1.30;;;;;;;23.60;30.18;101292.34;21002473;28;20031;-80
2023/05/09 21:46:52;;;;;;;3.28;1.42;;;;;;;23.40;30.47;101245.00;21014296;28;20082;-87
2023/05/09 21:56:54;;;;;;;3.05;1.42;;;;;;;23.32;29.77;101227.75;21035384;28;20045;-86
2023/05/09 22:06:55;;;;;;;2.35;1.60;;;;;;;23.24;29.56;101222.78;21007134;28;20051;-92
2023/05/09 22:16:56;;;;;;;1.92;1.42;;;;;;;23.74;30.50;101301.75;20980309;28;20041;-87
2023/05/09 22:26:58;;;;;;;2.67;1.60;;;;;;;23.49;30.04;101254.41;20978676;28;20052;-85
2023/05/09 22:36:59;;;;;;;4.57;2.65;;;;;;;23.73;29.71;101297.31;20976632;28;20090;-86
2023/05/09 22:47:01;;;;;;;5.78;2.55;;;;;;;23.78;30.18;101302.84;20942141;28;20040;-82
2023/05/09 22:57:02;;;;;;;3.40;1.77;;;;;;;23.79;30.07;101307.31;20984182;28;20032;-88
2023/05/09 23:07:03;;;;;;;5.57;2.15;;;;;;;23.65;29.91;101297.91;20944965;28;20037;-87
2023/05/09 23:17:05;;;;;;;4.50;1.35;;;;;;;23.54;29.30;101315.84;20982597;28;20032;-88
2023/05/09 23:27:10;;;;;;;6.68;1.70;;;;;;;23.60;29.82;101331.44;20972548;28;20036;-78
2023/05/09 23:37:11;;;;;;;3.28;1.33;;;;;;;23.52;30.05;101351.59;20911105;28;20442;-76
2023/05/09 23:47:13;;;;;;;4.88;2.03;;;;;;;23.52;30.49;101360.00;20908476;28;20094;-75
2023/05/09 23:57:14;;;;;;;3.50;1.85;;;;;;;23.62;30.44;101375.84;20984872;28;20052;-75
